createdAt,value
2018-11-13T00:00:20.100Z,0.00
2018-11-13T00:01:20.243Z,0.00
2018-11-13T00:02:20.217Z,0.00
2018-11-13T00:03:20.208Z,0.00
2018-11-13T00:04:20.250Z,0.00
2018-11-13T00:05:20.185Z,0.00
2018-11-13T00:06:20.243Z,0.00
2018-11-13T00:07:20.304Z,0.00
2018-11-13T00:08:20.192Z,0.00
2018-11-13T00:09:20.148Z,0.00
2018-11-13T00:10:20.168Z,0.00
2018-11-13T00:11:20.292Z,0.00
2018-11-13T00:12:20.181Z,0.00
2018-11-13T00:13:20.088Z,0.00
2018-11-13T00:14:20.105Z,0.00
2018-11-13T00:15:20.138Z,0.00
2018-11-13T00:16:20.127Z,0.00
2018-11-13T00:17:20.190Z,0.00
2018-11-13T00:18:20.124Z,0.00
2018-11-13T00:19:20.067Z,0.00
2018-11-13T00:20:20.049Z,0.00
2018-11-13T00:21:20.030Z,0.00
2018-11-13T00:22:20.034Z,0.00
2018-11-13T00:23:20.004Z,0.00
2018-11-13T00:24:20.051Z,0.00
2018-11-13T00:25:19.971Z,0.00
2018-11-13T00:26:19.980Z,0.00
2018-11-13T00:27:20.065Z,0.00
2018-11-13T00:28:20.006Z,0.00
2018-11-13T00:29:19.984Z,0.00
2018-11-13T00:30:20.009Z,0.00
2018-11-13T00:31:19.983Z,0.00
2018-11-13T00:32:20.058Z,0.00
2018-11-13T00:33:19.911Z,0.00
2018-11-13T00:34:19.907Z,0.00
2018-11-13T00:35:19.887Z,0.00
2018-11-13T00:36:19.857Z,0.00
2018-11-13T00:37:19.987Z,0.00
2018-11-13T00:38:19.856Z,0.00
2018-11-13T00:39:20.418Z,0.00
2018-11-13T00:40:19.798Z,0.00
2018-11-13T00:41:19.832Z,0.00
2018-11-13T00:42:19.943Z,0.00
2018-11-13T00:43:19.761Z,0.00
2018-11-13T00:44:19.810Z,0.00
2018-11-13T00:45:19.816Z,0.00
2018-11-13T00:46:19.713Z,0.00
2018-11-13T00:47:19.741Z,0.00
2018-11-13T00:48:19.645Z,0.00
2018-11-13T00:49:19.783Z,0.00
2018-11-13T00:50:19.719Z,0.00
2018-11-13T00:51:19.743Z,0.00
2018-11-13T00:52:19.745Z,0.00
2018-11-13T00:53:19.777Z,0.00
2018-11-13T00:54:19.711Z,0.00
2018-11-13T00:55:19.781Z,0.00
2018-11-13T00:56:19.700Z,0.00
2018-11-13T00:57:19.685Z,0.00
2018-11-13T00:58:19.791Z,0.00
2018-11-13T00:59:19.750Z,0.00
2018-11-13T01:00:19.732Z,0.00
2018-11-13T01:01:19.591Z,0.00
2018-11-13T01:02:19.630Z,0.00
2018-11-13T01:03:19.765Z,0.00
2018-11-13T01:04:19.599Z,0.00
2018-11-13T01:05:19.620Z,0.00
2018-11-13T01:06:19.605Z,0.00
2018-11-13T01:07:19.608Z,0.00
2018-11-13T01:08:19.673Z,0.00
2018-11-13T01:09:19.570Z,0.00
2018-11-13T01:10:19.541Z,0.00
2018-11-13T01:11:19.482Z,0.00
2018-11-13T01:12:19.469Z,0.00
2018-11-13T01:13:19.639Z,0.00
2018-11-13T01:14:19.531Z,0.00
2018-11-13T01:15:19.463Z,0.00
2018-11-13T01:16:19.477Z,0.00
2018-11-13T01:17:19.502Z,0.00
2018-11-13T01:18:20.082Z,0.00
2018-11-13T01:19:19.445Z,0.00
2018-11-13T01:20:19.422Z,0.00
2018-11-13T01:21:19.471Z,0.00
2018-11-13T01:22:19.471Z,0.00
2018-11-13T01:23:19.568Z,0.00
2018-11-13T01:24:19.479Z,0.00
2018-11-13T01:25:19.397Z,0.00
2018-11-13T01:26:19.337Z,0.00
2018-11-13T01:27:19.364Z,0.00
2018-11-13T01:28:19.509Z,0.00
2018-11-13T01:29:19.311Z,0.00
2018-11-13T01:30:19.180Z,0.00
2018-11-13T01:31:19.303Z,0.00
2018-11-13T01:32:19.332Z,0.00
2018-11-13T01:33:19.356Z,0.00
2018-11-13T01:34:19.278Z,0.00
2018-11-13T01:35:19.255Z,0.00
2018-11-13T01:36:19.297Z,0.00
2018-11-13T01:37:19.250Z,0.00
2018-11-13T01:38:19.334Z,0.00
2018-11-13T01:39:19.196Z,0.00
2018-11-13T01:40:19.234Z,0.00
2018-11-13T01:41:19.198Z,0.00
2018-11-13T01:42:19.178Z,0.00
2018-11-13T01:43:19.265Z,0.00
2018-11-13T01:44:19.197Z,0.00
2018-11-13T01:45:19.200Z,0.00
2018-11-13T01:46:19.188Z,0.00
2018-11-13T01:47:19.142Z,0.00
2018-11-13T01:48:19.217Z,0.00
2018-11-13T01:49:19.136Z,0.00
2018-11-13T01:50:19.103Z,0.00
2018-11-13T01:51:19.091Z,0.00
2018-11-13T01:52:19.123Z,0.00
2018-11-13T01:53:19.241Z,0.00
2018-11-13T01:54:19.091Z,0.00
2018-11-13T01:55:19.045Z,0.00
2018-11-13T01:56:19.047Z,0.00
2018-11-13T01:57:19.057Z,0.00
2018-11-13T01:58:19.542Z,0.00
2018-11-13T01:59:19.010Z,0.00
2018-11-13T02:00:19.015Z,0.00
2018-11-13T02:01:18.983Z,0.00
2018-11-13T02:02:19.012Z,0.00
2018-11-13T02:03:19.125Z,0.00
2018-11-13T02:04:18.973Z,0.00
2018-11-13T02:05:18.966Z,0.00
2018-11-13T02:06:18.954Z,0.00
2018-11-13T02:07:18.919Z,0.00
2018-11-13T02:08:19.034Z,0.00
2018-11-13T02:09:18.924Z,0.00
2018-11-13T02:10:18.918Z,0.00
2018-11-13T02:11:18.941Z,0.00
2018-11-13T02:12:18.909Z,0.00
2018-11-13T02:13:18.934Z,0.00
2018-11-13T02:14:18.875Z,0.00
2018-11-13T02:15:18.870Z,0.00
2018-11-13T02:16:18.851Z,0.00
2018-11-13T02:17:18.833Z,0.00
2018-11-13T02:18:18.972Z,0.00
2018-11-13T02:19:18.787Z,0.00
2018-11-13T02:20:18.809Z,0.00
2018-11-13T02:21:18.772Z,0.00
2018-11-13T02:22:18.796Z,0.00
2018-11-13T02:23:18.742Z,0.00
2018-11-13T02:24:19.003Z,0.00
2018-11-13T02:25:18.705Z,0.00
2018-11-13T02:26:18.704Z,0.00
2018-11-13T02:27:18.717Z,0.00
2018-11-13T02:28:18.702Z,0.00
2018-11-13T02:29:18.756Z,0.00
2018-11-13T02:30:18.704Z,0.00
2018-11-13T02:31:18.703Z,0.00
2018-11-13T02:32:18.658Z,0.00
2018-11-13T02:33:18.652Z,0.00
2018-11-13T02:34:19.046Z,0.00
2018-11-13T02:35:18.713Z,0.00
2018-11-13T02:36:18.635Z,0.00
2018-11-13T02:37:18.599Z,0.00
2018-11-13T02:38:18.622Z,0.00
2018-11-13T02:39:18.733Z,0.00
2018-11-13T02:40:18.623Z,0.00
2018-11-13T02:41:18.517Z,0.00
2018-11-13T02:42:18.556Z,0.00
2018-11-13T02:43:18.462Z,0.00
2018-11-13T02:44:18.986Z,0.00
2018-11-13T02:45:18.475Z,0.00
2018-11-13T02:46:18.456Z,0.00
2018-11-13T02:47:18.459Z,0.00
2018-11-13T02:48:18.498Z,0.00
2018-11-13T02:49:18.635Z,0.00
2018-11-13T02:50:18.460Z,0.00
2018-11-13T02:51:18.482Z,0.00
2018-11-13T02:52:18.501Z,0.00
2018-11-13T02:53:18.449Z,0.00
2018-11-13T02:54:18.506Z,0.00
2018-11-13T02:55:18.379Z,0.00
2018-11-13T02:56:18.357Z,0.00
2018-11-13T02:57:18.446Z,0.00
2018-11-13T02:58:18.406Z,0.00
2018-11-13T02:59:18.505Z,0.00
2018-11-13T03:00:18.394Z,0.00
2018-11-13T03:01:18.365Z,0.00
2018-11-13T03:02:18.367Z,0.00
2018-11-13T03:03:18.350Z,0.00
2018-11-13T03:04:18.546Z,0.00
2018-11-13T03:05:18.290Z,0.00
2018-11-13T03:06:18.313Z,0.00
2018-11-13T03:07:18.303Z,0.00
2018-11-13T03:08:18.271Z,0.00
2018-11-13T03:09:18.432Z,0.00
2018-11-13T03:10:18.314Z,0.00
2018-11-13T03:11:18.280Z,0.00
2018-11-13T03:12:18.250Z,0.00
2018-11-13T03:13:18.223Z,0.00
2018-11-13T03:14:18.231Z,0.00
2018-11-13T03:15:18.328Z,0.00
2018-11-13T03:16:18.189Z,0.00
2018-11-13T03:17:18.196Z,0.00
2018-11-13T03:18:18.202Z,0.00
2018-11-13T03:19:18.196Z,0.00
2018-11-13T03:20:18.338Z,0.00
2018-11-13T03:21:18.158Z,0.00
2018-11-13T03:22:18.183Z,0.00
2018-11-13T03:23:18.146Z,0.00
2018-11-13T03:24:18.079Z,0.00
2018-11-13T03:25:18.213Z,0.00
2018-11-13T03:26:18.134Z,0.00
2018-11-13T03:27:18.095Z,0.00
2018-11-13T03:28:18.099Z,0.00
2018-11-13T03:29:18.092Z,0.00
2018-11-13T03:30:18.506Z,0.00
2018-11-13T03:31:18.186Z,0.00
2018-11-13T03:32:17.994Z,0.00
2018-11-13T03:33:18.017Z,0.00
2018-11-13T03:34:17.952Z,0.00
2018-11-13T03:35:17.969Z,0.00
2018-11-13T03:36:17.987Z,0.00
2018-11-13T03:37:18.003Z,0.00
2018-11-13T03:38:17.973Z,0.00
2018-11-13T03:39:17.988Z,0.00
2018-11-13T03:40:18.032Z,0.00
2018-11-13T03:41:17.920Z,0.00
2018-11-13T03:42:17.872Z,0.00
2018-11-13T03:43:17.912Z,0.00
2018-11-13T03:44:17.825Z,0.00
2018-11-13T03:45:17.968Z,0.00
2018-11-13T03:46:17.909Z,0.00
2018-11-13T03:47:17.882Z,0.00
2018-11-13T03:48:17.863Z,0.00
2018-11-13T03:49:17.868Z,0.00
2018-11-13T03:50:17.945Z,0.00
2018-11-13T03:51:17.821Z,0.00
2018-11-13T03:52:17.818Z,0.00
2018-11-13T03:53:17.796Z,0.00
2018-11-13T03:54:17.807Z,0.00
2018-11-13T03:55:17.889Z,0.00
2018-11-13T03:56:17.798Z,0.00
2018-11-13T03:57:17.780Z,0.00
2018-11-13T03:58:17.760Z,0.00
2018-11-13T03:59:17.732Z,0.00
2018-11-13T04:00:17.883Z,0.00
2018-11-13T04:01:17.713Z,0.00
2018-11-13T04:02:17.712Z,0.00
2018-11-13T04:03:17.653Z,0.00
2018-11-13T04:04:17.705Z,0.00
2018-11-13T04:05:17.781Z,0.00
2018-11-13T04:06:17.642Z,0.00
2018-11-13T04:07:17.672Z,0.00
2018-11-13T04:08:17.637Z,0.00
2018-11-13T04:09:17.617Z,0.00
2018-11-13T04:10:17.736Z,0.00
2018-11-13T04:11:17.635Z,0.00
2018-11-13T04:12:17.559Z,0.00
2018-11-13T04:13:17.603Z,0.00
2018-11-13T04:14:17.549Z,0.00
2018-11-13T04:15:17.666Z,0.00
2018-11-13T04:16:17.578Z,0.00
2018-11-13T04:17:17.541Z,0.00
2018-11-13T04:18:17.544Z,0.00
2018-11-13T04:19:17.499Z,0.00
2018-11-13T04:20:17.539Z,0.00
2018-11-13T04:21:17.517Z,0.00
2018-11-13T04:22:17.489Z,0.00
2018-11-13T04:23:17.521Z,0.00
2018-11-13T04:24:17.484Z,0.00
2018-11-13T04:25:17.544Z,0.00
2018-11-13T04:26:17.453Z,0.00
2018-11-13T04:27:17.457Z,0.00
2018-11-13T04:28:17.456Z,0.00
2018-11-13T04:29:17.421Z,0.00
2018-11-13T04:30:17.518Z,0.00
2018-11-13T04:31:17.363Z,0.00
2018-11-13T04:32:17.263Z,0.00
2018-11-13T04:33:17.397Z,0.00
2018-11-13T04:34:17.391Z,0.00
2018-11-13T04:35:17.466Z,0.00
2018-11-13T04:36:17.342Z,0.00
2018-11-13T04:37:17.312Z,0.00
2018-11-13T04:38:17.343Z,0.00
2018-11-13T04:39:17.292Z,0.00
2018-11-13T04:40:17.320Z,0.00
2018-11-13T04:41:17.416Z,0.00
2018-11-13T04:42:17.255Z,0.00
2018-11-13T04:43:17.233Z,0.00
2018-11-13T04:44:17.220Z,0.00
2018-11-13T04:45:17.244Z,0.00
2018-11-13T04:46:17.506Z,0.00
2018-11-13T04:47:17.192Z,0.00
2018-11-13T04:48:17.209Z,0.00
2018-11-13T04:49:17.044Z,0.00
2018-11-13T04:50:17.132Z,0.00
2018-11-13T04:51:17.299Z,0.00
2018-11-13T04:52:17.166Z,0.00
2018-11-13T04:53:17.137Z,0.00
2018-11-13T04:54:17.109Z,0.00
2018-11-13T04:55:17.143Z,0.00
2018-11-13T04:56:17.538Z,0.00
2018-11-13T04:57:17.091Z,0.00
2018-11-13T04:58:17.120Z,0.00
2018-11-13T04:59:17.111Z,0.00
2018-11-13T05:00:17.096Z,0.00
2018-11-13T05:01:17.552Z,0.00
2018-11-13T05:02:17.084Z,0.00
2018-11-13T05:03:17.025Z,0.00
2018-11-13T05:04:17.068Z,0.00
2018-11-13T05:05:17.008Z,0.00
2018-11-13T05:06:17.157Z,0.00
2018-11-13T05:07:17.022Z,0.00
2018-11-13T05:08:16.894Z,0.00
2018-11-13T05:09:17.006Z,0.00
2018-11-13T05:10:16.952Z,0.00
2018-11-13T05:11:16.979Z,0.00
2018-11-13T05:12:16.959Z,0.00
2018-11-13T05:13:16.886Z,0.00
2018-11-13T05:14:16.967Z,0.00
2018-11-13T05:15:16.830Z,0.00
2018-11-13T05:16:17.083Z,0.00
2018-11-13T05:17:16.925Z,0.00
2018-11-13T05:18:16.880Z,0.00
2018-11-13T05:19:16.855Z,0.00
2018-11-13T05:20:16.897Z,0.00
2018-11-13T05:21:17.014Z,0.00
2018-11-13T05:22:16.887Z,0.00
2018-11-13T05:23:16.818Z,0.00
2018-11-13T05:24:16.861Z,0.00
2018-11-13T05:25:16.812Z,0.00
2018-11-13T05:26:17.094Z,0.00
2018-11-13T05:27:16.799Z,0.00
2018-11-13T05:28:16.812Z,0.00
2018-11-13T05:29:16.800Z,0.00
2018-11-13T05:30:16.796Z,0.00
2018-11-13T05:31:17.054Z,0.00
2018-11-13T05:32:16.799Z,0.00
2018-11-13T05:33:16.683Z,0.00
2018-11-13T05:34:16.638Z,0.00
2018-11-13T05:35:16.723Z,0.00
2018-11-13T05:36:16.820Z,0.00
2018-11-13T05:37:16.714Z,0.00
2018-11-13T05:38:16.716Z,0.00
2018-11-13T05:39:16.691Z,0.00
2018-11-13T05:40:16.678Z,0.00
2018-11-13T05:41:16.703Z,0.00
2018-11-13T05:42:16.652Z,0.00
2018-11-13T05:43:16.517Z,0.00
2018-11-13T05:44:16.476Z,0.00
2018-11-13T05:45:16.527Z,0.00
2018-11-13T05:46:16.966Z,0.00
2018-11-13T05:47:17.555Z,0.00
2018-11-13T05:48:16.448Z,0.00
2018-11-13T05:49:16.436Z,0.00
2018-11-13T05:50:16.410Z,0.00
2018-11-13T05:51:16.390Z,0.00
2018-11-13T05:52:37.432Z,0.00
2018-11-13T05:53:16.396Z,0.00
2018-11-13T05:54:16.511Z,0.00
2018-11-13T05:55:16.534Z,0.00
2018-11-13T05:56:16.392Z,0.00
2018-11-13T05:57:16.380Z,0.00
2018-11-13T05:58:16.323Z,0.00
2018-11-13T05:59:16.299Z,0.00
2018-11-13T06:00:16.326Z,0.00
2018-11-13T06:01:16.328Z,0.00
2018-11-13T06:02:16.281Z,0.00
2018-11-13T06:03:16.237Z,0.00
2018-11-13T06:04:16.223Z,0.00
2018-11-13T06:05:16.210Z,0.00
2018-11-13T06:06:16.203Z,0.00
2018-11-13T06:07:16.207Z,0.00
2018-11-13T06:08:16.219Z,0.00
2018-11-13T06:09:16.185Z,0.00
2018-11-13T06:10:16.160Z,0.00
2018-11-13T06:11:16.147Z,0.00
2018-11-13T06:12:16.155Z,0.00
2018-11-13T06:13:16.126Z,0.00
2018-11-13T06:14:16.201Z,0.00
2018-11-13T06:15:16.125Z,0.00
2018-11-13T06:16:16.096Z,0.00
2018-11-13T06:17:16.116Z,0.00
2018-11-13T06:18:16.394Z,4.00
2018-11-13T06:19:16.261Z,4.00
2018-11-13T06:20:16.249Z,4.00
2018-11-13T06:21:16.226Z,4.00
2018-11-13T06:22:16.312Z,4.00
2018-11-13T06:23:16.189Z,8.00
2018-11-13T06:24:16.168Z,4.00
2018-11-13T06:25:16.079Z,12.00
2018-11-13T06:26:16.008Z,8.00
2018-11-13T06:27:16.172Z,8.00
2018-11-13T06:28:15.998Z,12.00
2018-11-13T06:29:15.979Z,16.00
2018-11-13T06:30:15.990Z,20.00
2018-11-13T06:31:15.986Z,20.00
2018-11-13T06:32:15.988Z,24.00
2018-11-13T06:33:15.985Z,24.00
2018-11-13T06:34:15.933Z,32.00
2018-11-13T06:35:15.964Z,36.00
2018-11-13T06:36:15.957Z,40.00
2018-11-13T06:37:16.027Z,48.00
2018-11-13T06:38:15.948Z,56.00
2018-11-13T06:39:15.892Z,56.00
2018-11-13T06:40:15.947Z,64.00
2018-11-13T06:41:15.985Z,68.00
2018-11-13T06:42:16.488Z,76.00
2018-11-13T06:43:15.975Z,84.00
2018-11-13T06:44:15.991Z,88.00
2018-11-13T06:45:15.917Z,96.00
2018-11-13T06:46:15.979Z,104.00
2018-11-13T06:47:16.022Z,116.00
2018-11-13T06:48:15.927Z,124.00
2018-11-13T06:49:15.919Z,132.00
2018-11-13T06:50:15.887Z,140.00
2018-11-13T06:51:15.876Z,148.00
2018-11-13T06:52:16.091Z,156.00
2018-11-13T06:53:15.865Z,168.00
2018-11-13T06:54:15.887Z,176.00
2018-11-13T06:55:15.865Z,184.00
2018-11-13T06:56:15.875Z,192.00
2018-11-13T06:57:15.820Z,204.00
2018-11-13T06:58:15.883Z,212.00
2018-11-13T06:59:15.700Z,220.00
2018-11-13T07:00:15.820Z,228.00
2018-11-13T07:01:15.823Z,236.00
2018-11-13T07:02:15.775Z,244.00
2018-11-13T07:03:15.914Z,252.00
2018-11-13T07:04:15.754Z,260.00
2018-11-13T07:05:15.891Z,272.00
2018-11-13T07:06:15.705Z,280.00
2018-11-13T07:07:15.698Z,284.00
2018-11-13T07:08:15.860Z,292.00
2018-11-13T07:09:15.530Z,300.00
2018-11-13T07:10:15.691Z,308.00
2018-11-13T07:11:15.769Z,316.00
2018-11-13T07:12:15.696Z,328.00
2018-11-13T07:13:15.729Z,340.00
2018-11-13T07:14:15.635Z,348.00
2018-11-13T07:15:15.660Z,356.00
2018-11-13T07:16:15.641Z,368.00
2018-11-13T07:17:15.623Z,380.00
2018-11-13T07:18:15.799Z,388.00
2018-11-13T07:19:15.608Z,396.00
2018-11-13T07:20:15.623Z,400.00
2018-11-13T07:21:15.599Z,416.00
2018-11-13T07:22:15.476Z,436.00
2018-11-13T07:23:15.684Z,464.00
2018-11-13T07:24:15.557Z,492.00
2018-11-13T07:25:15.579Z,516.00
2018-11-13T07:26:15.512Z,532.00
2018-11-13T07:27:15.539Z,552.00
2018-11-13T07:28:15.456Z,588.00
2018-11-13T07:29:15.517Z,592.00
2018-11-13T07:30:15.488Z,592.00
2018-11-13T07:31:15.451Z,580.00
2018-11-13T07:32:15.482Z,608.00
2018-11-13T07:33:15.582Z,680.00
2018-11-13T07:34:15.521Z,740.00
2018-11-13T07:35:15.407Z,764.00
2018-11-13T07:36:15.395Z,888.00
2018-11-13T07:37:15.423Z,1068.00
2018-11-13T07:38:15.509Z,984.00
2018-11-13T07:39:15.370Z,1108.00
2018-11-13T07:40:15.368Z,1204.00
2018-11-13T07:41:15.415Z,1304.00
2018-11-13T07:42:15.277Z,1332.00
2018-11-13T07:43:15.432Z,1724.00
2018-11-13T07:44:15.351Z,1880.00
2018-11-13T07:45:15.299Z,2044.00
2018-11-13T07:46:15.314Z,2072.00
2018-11-13T07:47:15.335Z,2048.00
2018-11-13T07:48:15.386Z,2464.00
2018-11-13T07:49:15.196Z,2640.00
2018-11-13T07:50:15.284Z,2448.00
2018-11-13T07:51:15.412Z,2268.00
2018-11-13T07:52:15.277Z,2052.00
2018-11-13T07:53:15.381Z,1912.00
2018-11-13T07:54:15.230Z,1864.00
2018-11-13T07:55:15.102Z,1584.00
2018-11-13T07:56:15.189Z,1864.00
2018-11-13T07:57:15.212Z,1852.00
2018-11-13T07:58:15.276Z,1416.00
2018-11-13T07:59:15.118Z,1132.00
2018-11-13T08:00:15.141Z,1276.00
2018-11-13T08:01:15.160Z,1360.00
2018-11-13T08:02:15.169Z,1448.00
2018-11-13T08:03:15.309Z,1524.00
2018-11-13T08:04:15.114Z,1784.00
2018-11-13T08:05:15.055Z,2000.00
2018-11-13T08:06:15.107Z,2540.00
2018-11-13T08:07:15.151Z,2624.00
2018-11-13T08:08:15.132Z,2716.00
2018-11-13T08:09:15.093Z,2652.00
2018-11-13T08:10:15.048Z,2336.00
2018-11-13T08:11:14.999Z,2376.00
2018-11-13T08:12:15.070Z,2436.00
2018-11-13T08:13:15.244Z,2528.00
2018-11-13T08:14:15.052Z,2472.00
2018-11-13T08:15:14.996Z,2292.00
2018-11-13T08:16:14.973Z,2404.00
2018-11-13T08:17:14.999Z,2316.00
2018-11-13T08:18:14.976Z,2136.00
2018-11-13T08:19:15.111Z,2192.00
2018-11-13T08:20:14.929Z,2032.00
2018-11-13T08:21:14.959Z,1748.00
2018-11-13T08:22:14.938Z,1864.00
2018-11-13T08:23:14.904Z,1968.00
2018-11-13T08:24:14.962Z,2072.00
2018-11-13T08:25:14.855Z,2116.00
2018-11-13T08:26:14.959Z,2028.00
2018-11-13T08:27:14.737Z,2080.00
2018-11-13T08:28:14.893Z,2088.00
2018-11-13T08:29:14.972Z,2072.00
2018-11-13T08:30:14.836Z,2056.00
2018-11-13T08:31:14.789Z,1996.00
2018-11-13T08:32:14.785Z,2032.00
2018-11-13T08:33:14.848Z,2088.00
2018-11-13T08:34:14.784Z,2112.00
2018-11-13T08:35:14.756Z,2004.00
2018-11-13T08:36:14.760Z,1740.00
2018-11-13T08:37:14.788Z,1404.00
2018-11-13T08:38:14.659Z,1300.00
2018-11-13T08:39:14.810Z,1240.00
2018-11-13T08:40:14.763Z,1172.00
2018-11-13T08:41:14.747Z,1140.00
2018-11-13T08:42:14.706Z,1100.00
2018-11-13T08:43:14.645Z,1088.00
2018-11-13T08:44:14.884Z,1076.00
2018-11-13T08:45:14.693Z,1076.00
2018-11-13T08:46:14.645Z,1092.00
2018-11-13T08:47:14.657Z,1108.00
2018-11-13T08:48:14.627Z,1096.00
2018-11-13T08:49:14.762Z,1112.00
2018-11-13T08:50:14.624Z,1180.00
2018-11-13T08:51:14.591Z,1176.00
2018-11-13T08:52:14.606Z,1224.00
2018-11-13T08:53:14.523Z,1396.00
2018-11-13T08:54:14.667Z,1720.00
2018-11-13T08:55:14.560Z,1912.00
2018-11-13T08:56:14.489Z,1512.00
2018-11-13T08:57:14.558Z,1320.00
2018-11-13T08:58:14.576Z,1452.00
2018-11-13T08:59:14.832Z,1288.00
2018-11-13T09:00:14.468Z,1344.00
2018-11-13T09:01:14.465Z,1552.00
2018-11-13T09:02:14.447Z,1392.00
2018-11-13T09:03:14.452Z,1636.00
2018-11-13T09:04:14.561Z,1760.00
2018-11-13T09:05:14.649Z,1400.00
2018-11-13T09:06:14.456Z,1388.00
2018-11-13T09:07:14.400Z,1404.00
2018-11-13T09:08:14.415Z,1536.00
2018-11-13T09:09:14.501Z,1416.00
2018-11-13T09:10:14.392Z,1548.00
2018-11-13T09:11:14.378Z,1436.00
2018-11-13T09:12:14.383Z,1476.00
2018-11-13T09:13:14.398Z,1752.00
2018-11-13T09:14:14.441Z,1680.00
2018-11-13T09:15:14.328Z,1596.00
2018-11-13T09:16:14.316Z,1640.00
2018-11-13T09:17:14.294Z,1740.00
2018-11-13T09:18:14.309Z,1700.00
2018-11-13T09:19:14.477Z,1580.00
2018-11-13T09:20:14.308Z,1408.00
2018-11-13T09:21:14.287Z,1548.00
2018-11-13T09:22:14.235Z,1748.00
2018-11-13T09:23:14.096Z,1672.00
2018-11-13T09:24:14.111Z,1880.00
2018-11-13T09:25:14.071Z,1668.00
2018-11-13T09:26:14.069Z,1612.00
2018-11-13T09:27:14.050Z,1692.00
2018-11-13T09:28:14.048Z,1560.00
2018-11-13T09:29:14.040Z,1684.00
2018-11-13T09:30:14.246Z,1932.00
2018-11-13T09:31:14.022Z,2260.00
2018-11-13T09:32:14.012Z,2292.00
2018-11-13T09:33:13.991Z,2168.00
2018-11-13T09:34:13.983Z,2752.00
2018-11-13T09:35:14.065Z,3744.00
2018-11-13T09:36:13.973Z,4480.00
2018-11-13T09:37:13.948Z,3444.00
2018-11-13T09:38:13.933Z,3044.00
2018-11-13T09:39:13.947Z,3312.00
2018-11-13T09:40:14.295Z,3252.00
2018-11-13T09:41:13.898Z,2544.00
2018-11-13T09:42:13.917Z,1980.00
2018-11-13T09:43:13.877Z,3064.00
2018-11-13T09:44:13.866Z,2824.00
2018-11-13T09:45:13.869Z,3404.00
2018-11-13T09:46:13.849Z,3408.00
2018-11-13T09:47:13.834Z,3884.00
2018-11-13T09:48:13.828Z,4016.00
2018-11-13T09:49:13.810Z,4180.00
2018-11-13T09:50:13.865Z,2620.00
2018-11-13T09:51:13.793Z,3172.00
2018-11-13T09:52:13.780Z,3844.00
2018-11-13T09:53:13.805Z,3800.00
2018-11-13T09:54:13.774Z,4784.00
2018-11-13T09:55:13.766Z,4712.00
2018-11-13T09:56:13.748Z,4336.00
2018-11-13T09:57:13.748Z,2860.00
2018-11-13T09:58:13.714Z,2928.00
2018-11-13T09:59:13.703Z,3108.00
2018-11-13T10:00:13.914Z,2992.00
2018-11-13T10:01:14.201Z,3216.00
2018-11-13T10:02:14.314Z,3416.00
2018-11-13T10:03:14.459Z,3636.00
2018-11-13T10:04:14.247Z,3348.00
2018-11-13T10:05:14.295Z,3232.00
2018-11-13T10:06:13.671Z,2836.00
2018-11-13T10:07:13.626Z,2092.00
2018-11-13T10:08:13.614Z,1940.00
2018-11-13T10:09:13.620Z,2064.00
2018-11-13T10:10:13.859Z,1968.00
2018-11-13T10:11:13.582Z,3136.00
2018-11-13T10:12:13.598Z,3108.00
2018-11-13T10:13:13.556Z,3032.00
2018-11-13T10:14:13.539Z,2840.00
2018-11-13T10:15:13.546Z,3508.00
2018-11-13T10:16:13.538Z,2996.00
2018-11-13T10:17:13.548Z,3220.00
2018-11-13T10:18:13.634Z,3232.00
2018-11-13T10:19:13.486Z,3608.00
2018-11-13T10:20:13.512Z,4164.00
2018-11-13T10:21:13.469Z,3728.00
2018-11-13T10:22:13.464Z,3412.00
2018-11-13T10:23:13.462Z,3412.00
2018-11-13T10:24:14.264Z,3832.00
2018-11-13T10:25:13.442Z,4740.00
2018-11-13T10:26:13.471Z,4264.00
2018-11-13T10:27:13.502Z,4964.00
2018-11-13T10:28:13.424Z,4556.00
2018-11-13T10:29:13.381Z,3292.00
2018-11-13T10:30:13.403Z,2304.00
2018-11-13T10:31:13.370Z,2600.00
2018-11-13T10:32:14.268Z,2252.00
2018-11-13T10:33:13.360Z,2304.00
2018-11-13T10:34:13.331Z,3528.00
2018-11-13T10:35:13.345Z,4776.00
2018-11-13T10:36:13.328Z,4144.00
2018-11-13T10:37:13.308Z,3112.00
2018-11-13T10:38:13.289Z,5032.00
2018-11-13T10:39:13.313Z,3168.00
2018-11-13T10:40:13.875Z,2384.00
2018-11-13T10:41:14.831Z,2596.00
2018-11-13T10:42:14.781Z,2560.00
2018-11-13T10:43:13.231Z,2192.00
2018-11-13T10:44:14.786Z,1976.00
2018-11-13T10:45:16.342Z,3232.00
2018-11-13T10:46:13.200Z,4912.00
2018-11-13T10:47:13.203Z,5584.00
2018-11-13T10:48:13.180Z,5204.00
2018-11-13T10:49:13.289Z,4032.00
2018-11-13T10:50:13.291Z,2200.00
2018-11-13T10:51:13.768Z,2472.00
2018-11-13T10:52:13.133Z,2904.00
2018-11-13T10:53:13.120Z,2440.00
2018-11-13T10:54:13.116Z,2384.00
2018-11-13T10:55:13.122Z,2192.00
2018-11-13T10:56:13.133Z,2264.00
2018-11-13T10:57:13.085Z,2496.00
2018-11-13T10:58:13.068Z,2348.00
2018-11-13T10:59:13.782Z,2332.00
2018-11-13T11:00:13.073Z,3160.00
2018-11-13T11:01:13.764Z,5140.00
2018-11-13T11:02:13.771Z,3396.00
2018-11-13T11:03:13.033Z,2008.00
2018-11-13T11:04:13.767Z,2252.00
2018-11-13T11:05:13.796Z,2468.00
2018-11-13T11:06:14.054Z,2536.00
2018-11-13T11:07:12.972Z,3492.00
2018-11-13T11:08:13.025Z,2896.00
2018-11-13T11:09:12.950Z,1560.00
2018-11-13T11:10:12.940Z,1084.00
2018-11-13T11:11:12.989Z,844.00
2018-11-13T11:12:12.930Z,1200.00
2018-11-13T11:13:13.145Z,1608.00
2018-11-13T11:14:12.902Z,2616.00
2018-11-13T11:15:12.886Z,5156.00
2018-11-13T11:16:13.801Z,4796.00
2018-11-13T11:17:12.866Z,3024.00
2018-11-13T11:18:15.862Z,2852.00
2018-11-13T11:19:12.897Z,2804.00
2018-11-13T11:20:12.838Z,3324.00
2018-11-13T11:21:14.781Z,3252.00
2018-11-13T11:22:13.766Z,3148.00
2018-11-13T11:23:12.807Z,3180.00
2018-11-13T11:24:15.871Z,3736.00
2018-11-13T11:25:13.845Z,3576.00
2018-11-13T11:26:12.792Z,2360.00
2018-11-13T11:27:12.754Z,1820.00
2018-11-13T11:28:12.782Z,2492.00
2018-11-13T11:29:19.276Z,2392.00
2018-11-13T11:30:12.727Z,2668.00
2018-11-13T11:31:12.732Z,2924.00
2018-11-13T11:32:14.282Z,3536.00
2018-11-13T11:33:13.275Z,3540.00
2018-11-13T11:34:13.270Z,3284.00
2018-11-13T11:35:12.679Z,2852.00
2018-11-13T11:36:12.689Z,2628.00
2018-11-13T11:37:12.648Z,2836.00
2018-11-13T11:38:12.641Z,2624.00
2018-11-13T11:39:12.730Z,2780.00
2018-11-13T11:40:12.618Z,3388.00
2018-11-13T11:41:12.630Z,3944.00
2018-11-13T11:42:12.601Z,4352.00
2018-11-13T11:43:12.594Z,4220.00
2018-11-13T11:44:12.634Z,3556.00
2018-11-13T11:45:14.269Z,3440.00
2018-11-13T11:46:12.789Z,2208.00
2018-11-13T11:47:12.551Z,1472.00
2018-11-13T11:48:12.534Z,1136.00
2018-11-13T11:49:13.524Z,792.00
2018-11-13T11:50:12.511Z,1488.00
2018-11-13T11:51:17.792Z,1924.00
2018-11-13T11:52:12.488Z,1028.00
2018-11-13T11:53:12.482Z,732.00
2018-11-13T11:54:14.289Z,1884.00
2018-11-13T11:55:13.278Z,2016.00
2018-11-13T11:56:12.458Z,1744.00
2018-11-13T11:57:12.433Z,1564.00
2018-11-13T11:58:13.276Z,2240.00
2018-11-13T11:59:12.420Z,4316.00
2018-11-13T12:00:12.409Z,3656.00
2018-11-13T12:01:12.412Z,2240.00
2018-11-13T12:02:14.396Z,2324.00
2018-11-13T12:03:12.373Z,2532.00
2018-11-13T12:04:12.367Z,2664.00
2018-11-13T12:05:15.271Z,3288.00
2018-11-13T12:06:12.797Z,4108.00
2018-11-13T12:07:12.340Z,3820.00
2018-11-13T12:08:12.314Z,3140.00
2018-11-13T12:09:12.310Z,2424.00
2018-11-13T12:10:12.294Z,2100.00
2018-11-13T12:11:12.282Z,1788.00
2018-11-13T12:12:12.309Z,2112.00
2018-11-13T12:13:12.820Z,2528.00
2018-11-13T12:14:12.256Z,2836.00
2018-11-13T12:15:12.247Z,3160.00
2018-11-13T12:16:12.236Z,2680.00
2018-11-13T12:17:19.286Z,1980.00
2018-11-13T12:18:12.216Z,1636.00
2018-11-13T12:19:12.260Z,1616.00
2018-11-13T12:20:12.195Z,1616.00
2018-11-13T12:21:12.178Z,1852.00
2018-11-13T12:22:12.196Z,2296.00
2018-11-13T12:23:12.160Z,2676.00
2018-11-13T12:24:12.153Z,2164.00
2018-11-13T12:25:12.133Z,1848.00
2018-11-13T12:26:12.767Z,1496.00
2018-11-13T12:27:12.141Z,1364.00
2018-11-13T12:28:12.106Z,1436.00
2018-11-13T12:29:12.092Z,1444.00
2018-11-13T12:30:12.124Z,2328.00
2018-11-13T12:31:12.078Z,3480.00
2018-11-13T12:32:12.072Z,3540.00
2018-11-13T12:33:13.788Z,2528.00
2018-11-13T12:34:12.770Z,1556.00
2018-11-13T12:35:12.027Z,1228.00
2018-11-13T12:36:12.037Z,1108.00
2018-11-13T12:37:12.018Z,1232.00
2018-11-13T12:38:12.768Z,1300.00
2018-11-13T12:39:12.784Z,1204.00
2018-11-13T12:40:11.971Z,1212.00
2018-11-13T12:41:13.788Z,1468.00
2018-11-13T12:42:11.962Z,1928.00
2018-11-13T12:43:11.939Z,2188.00